Terminal Aerodrome Forecast
Issued by NWS

Current Version | Previous Version | Graphics & Text | Print | Product List | Glossary Off
Versions: 1 2 3 4 5 6 7 8 9 10 11 12 13 14 15

000
FTUS41 KPBZ 131100
TAFMGW
TAF
KMGW 131120Z 1312/1412 23005KT P6SM BKN150
     FM131500 20010G20KT P6SM BKN100
      TEMPO 1318/1321 5SM -TSRA BKN030CB
     FM132200 23007KT P6SM BKN050
     FM140400 22003KT 6SM -SHRA OVC025=

USA.gov is the U.S. government's official web portal to all federal, state and local government web resources and services.